Gold Beach, OR (97444)

12:02 AM PST on February 12, 2016 (GMT -0800)
KF7MWX | | Change Station
CLOSE
Current Station
Personal Weather Station
Location: Gold Beach, OR
Elevation: 56 ft
Nearby Weather Stations

Elev 56 ft 42.41 °N, 124.42 °W | Updated 3 seconds ago

Overcast
Overcast
59.7 °F
Feels Like 59.7 °F
N
5.4
Wind Variable Wind from South
Gusts 9.8 mph

Today
High -- | Low -- °F
--% Chance of Precip.
Yesterday
High -- | Low -- °F
Precip. -- in
Pressure 30.24 in
Visibility 10.0 miles
Clouds Few 2300 ft
Mostly Cloudy 5500 ft
Overcast 10000 ft
Dew Point 54 °F
Humidity 81%
Rainfall 0.00 in
Snow Depth Not available.
7:18 AM 5:45 PM
Waxing Crescent, 18% visible
METAR KBOK 120756Z AUTO VRB06KT 10SM FEW023 BKN055 OVC100 12/10 A3019 RMK AO2 SLP238 T01220100 401780106
Pressure 30.24 in
Visibility 10.0 miles
Clouds Few 2300 ft
Mostly Cloudy 5500 ft
Overcast 10000 ft
Dew Point 54 °F
Humidity 81%
Rainfall 0.00 in
Snow Depth Not available.
7:18 AM 5:45 PM
Waxing Crescent, 18% visible
METAR KBOK 120756Z AUTO VRB06KT 10SM FEW023 BKN055 OVC100 12/10 A3019 RMK AO2 SLP238 T01220100 401780106

10-Day Weather Forecast

Almanac

Astronomy

Feb. 12, 2016 Rise Set
Actual Time
Civil Twilight
Nautical Twilight
Astronomical Twilight
Moon
Length of Visible Light
Length of Day
Tomorrow will be .
, % of the Moon is Illuminated

Today's Extremes

State Highs State Lows

Community

WunderPhotos

Upload Photos

1,892,278 photos uploaded!

WunderBlog® & News

Nearby

Air Quality

  Air Quality AQ Index Pollutant
Not available.

Snow Depth

Station Depth Elevation

Earthquake Activity

City Distance Mag. Time & Date
Minimum magnitude displayed is 2.5.

Coastal Water Temperatures

Place Temperature

Stations

Nearby Weather Stations

Station Location Temp. Windchill Dew Point Humidity Wind Precip. Elev Updated Type
                   

Watches & Warnings

There are currently no watches in effect.